createdAt,value
2019-01-31T00:02:23.208Z,93664.02
2019-01-31T00:05:35.160Z,93661.98
2019-01-31T00:08:45.174Z,93670.52
2019-01-31T00:11:38.771Z,93668.64
2019-01-31T00:14:24.674Z,93667.37
2019-01-31T00:17:34.350Z,93671.88
2019-01-31T00:20:35.252Z,93674.66
2019-01-31T00:23:51.897Z,93680.80
2019-01-31T00:26:38.043Z,93696.81
2019-01-31T00:29:19.351Z,93695.78
2019-01-31T00:32:31.195Z,93701.14
2019-01-31T00:35:38.708Z,93706.68
2019-01-31T00:38:43.654Z,93700.99
2019-01-31T00:41:40.865Z,93708.83
2019-01-31T00:44:34.661Z,93701.91
2019-01-31T00:47:58.632Z,93718.45
2019-01-31T00:51:00.657Z,93715.33
2019-01-31T00:54:18.488Z,93717.56
2019-01-31T00:57:18.383Z,93723.25
2019-01-31T01:00:10.063Z,93714.52
2019-01-31T01:03:09.968Z,93717.93
2019-01-31T01:06:27.763Z,93710.28
2019-01-31T01:09:23.089Z,93709.04
2019-01-31T01:12:21.522Z,93706.47
2019-01-31T01:15:30.681Z,93705.70
2019-01-31T01:18:44.257Z,93704.09
2019-01-31T01:21:55.989Z,93708.27
2019-01-31T01:25:08.956Z,93703.49
2019-01-31T01:28:24.156Z,93702.97
2019-01-31T01:31:26.261Z,93698.92
2019-01-31T01:34:37.213Z,93697.24
2019-01-31T01:37:38.359Z,93698.53
2019-01-31T01:40:33.808Z,93699.52
2019-01-31T01:43:34.035Z,93702.86
2019-01-31T01:46:51.719Z,93695.95
2019-01-31T01:49:50.225Z,93702.56
2019-01-31T01:52:42.940Z,93699.43
2019-01-31T01:56:10.184Z,93697.25
2019-01-31T01:59:12.723Z,93687.34
2019-01-31T02:02:28.292Z,93684.27
2019-01-31T02:05:34.660Z,93681.54
2019-01-31T02:08:27.544Z,93683.39
2019-01-31T02:11:48.313Z,93693.38
2019-01-31T02:15:04.316Z,93695.32
2019-01-31T02:18:06.542Z,93698.44
2019-01-31T02:21:17.708Z,93706.55
2019-01-31T02:24:19.372Z,93700.91
2019-01-31T02:27:03.247Z,93706.16
2019-01-31T02:30:18.300Z,93710.92
2019-01-31T02:33:30.640Z,93703.19
2019-01-31T02:37:01.046Z,93712.44
2019-01-31T02:40:19.946Z,93708.76
2019-01-31T02:43:21.646Z,93708.17
2019-01-31T02:46:29.404Z,93709.06
2019-01-31T02:49:44.684Z,93712.04
2019-01-31T02:52:51.773Z,93702.95
2019-01-31T02:55:37.512Z,93700.86
2019-01-31T02:58:43.513Z,93696.59
2019-01-31T03:01:55.547Z,93689.05
2019-01-31T03:05:03.425Z,93686.84
2019-01-31T03:08:00.446Z,93687.89
2019-01-31T03:10:44.919Z,93684.92
2019-01-31T03:13:52.229Z,93690.57
2019-01-31T03:16:53.522Z,93689.13
2019-01-31T03:19:53.807Z,93683.33
2019-01-31T03:23:08.976Z,93684.43
2019-01-31T03:25:46.977Z,93683.09
2019-01-31T03:29:02.380Z,93686.54
2019-01-31T03:31:54.550Z,93683.89
2019-01-31T03:35:01.223Z,93690.87
2019-01-31T03:38:07.479Z,93696.20
2019-01-31T03:41:22.716Z,93701.40
2019-01-31T03:44:36.043Z,93697.47
2019-01-31T03:47:38.534Z,93703.23
2019-01-31T03:50:42.058Z,93700.66
2019-01-31T03:54:03.398Z,93697.69
2019-01-31T03:57:07.200Z,93698.42
2019-01-31T03:59:49.568Z,93705.25
2019-01-31T04:02:33.602Z,93691.61
2019-01-31T04:05:29.221Z,93686.48
2019-01-31T04:08:00.501Z,93684.27
2019-01-31T04:10:32.284Z,93685.88
2019-01-31T04:13:03.764Z,93664.28
2019-01-31T04:15:35.581Z,93681.60
2019-01-31T04:18:07.478Z,93681.07
2019-01-31T04:20:39.326Z,93673.80
2019-01-31T04:23:11.013Z,93666.19
2019-01-31T04:25:42.521Z,93667.41
2019-01-31T04:28:14.280Z,93668.70
2019-01-31T04:30:45.780Z,93664.33
2019-01-31T04:33:17.127Z,93668.61
2019-01-31T04:35:48.680Z,93674.75
2019-01-31T04:38:20.394Z,93674.19
2019-01-31T04:40:52.052Z,93668.19
2019-01-31T04:43:23.363Z,93668.97
2019-01-31T04:45:54.886Z,93671.28
2019-01-31T04:48:26.355Z,93663.25
2019-01-31T04:50:57.938Z,93655.43
2019-01-31T04:53:29.756Z,93651.41
2019-01-31T04:56:01.466Z,93657.45
2019-01-31T04:58:33.060Z,93663.73
2019-01-31T05:01:04.743Z,93666.59
2019-01-31T05:03:36.436Z,93663.35
2019-01-31T05:06:07.847Z,93663.91
2019-01-31T05:08:39.543Z,93663.75
2019-01-31T05:11:10.814Z,93672.14
2019-01-31T05:13:42.368Z,93677.50
2019-01-31T05:16:13.733Z,93679.39
2019-01-31T05:18:45.368Z,93683.16
2019-01-31T05:21:16.662Z,93685.80
2019-01-31T05:23:48.432Z,93686.56
2019-01-31T05:26:20.110Z,93685.59
2019-01-31T05:28:51.537Z,93687.75
2019-01-31T05:31:22.917Z,93694.56
2019-01-31T05:33:54.557Z,93707.79
2019-01-31T05:36:26.100Z,93706.44
2019-01-31T05:38:57.845Z,93709.38
2019-01-31T05:41:29.670Z,93710.17
2019-01-31T05:44:01.427Z,93708.89
2019-01-31T05:46:33.366Z,93710.56
2019-01-31T05:49:04.915Z,93702.91
2019-01-31T05:51:39.369Z,93707.30
2019-01-31T05:54:09.961Z,93705.75
2019-01-31T05:56:41.662Z,93707.19
2019-01-31T05:59:13.342Z,93714.05
2019-01-31T06:01:44.610Z,93712.58
2019-01-31T06:04:16.307Z,93708.39
2019-01-31T06:06:47.936Z,93712.81
2019-01-31T06:09:19.415Z,93722.64
2019-01-31T06:11:51.223Z,93716.12
2019-01-31T06:14:22.979Z,93719.23
2019-01-31T06:16:54.733Z,93726.39
2019-01-31T06:19:26.220Z,93725.94
2019-01-31T06:21:57.938Z,93725.41
2019-01-31T06:24:29.676Z,93723.27
2019-01-31T06:27:01.407Z,93723.59
2019-01-31T06:29:33.157Z,93717.30
2019-01-31T06:32:04.633Z,93716.84
2019-01-31T06:34:36.272Z,93728.72
2019-01-31T06:37:07.921Z,93733.72
2019-01-31T06:39:39.523Z,93729.44
2019-01-31T06:42:11.404Z,93741.34
2019-01-31T06:44:43.140Z,93748.11
2019-01-31T06:47:14.515Z,93746.81
2019-01-31T06:49:46.115Z,93753.02
2019-01-31T06:52:17.822Z,93756.24
2019-01-31T06:54:49.231Z,93763.19
2019-01-31T06:57:20.917Z,93770.88
2019-01-31T06:59:52.308Z,93775.13
2019-01-31T07:02:24.177Z,93766.31
2019-01-31T07:04:55.920Z,93773.74
2019-01-31T07:07:27.708Z,93765.06
2019-01-31T07:09:59.169Z,93763.52
2019-01-31T07:12:30.919Z,93769.11
2019-01-31T07:15:02.468Z,93765.28
2019-01-31T07:17:34.168Z,93764.48
2019-01-31T07:20:06.586Z,93775.53
2019-01-31T07:22:38.050Z,93772.23
2019-01-31T07:25:14.369Z,93775.70
2019-01-31T07:27:46.002Z,93772.20
2019-01-31T07:30:18.259Z,93769.09
2019-01-31T07:32:49.862Z,93765.04
2019-01-31T07:35:21.794Z,93776.63
2019-01-31T07:37:53.659Z,93772.14
2019-01-31T07:40:25.241Z,93774.97
2019-01-31T07:42:56.660Z,93775.48
2019-01-31T07:45:30.010Z,93770.78
2019-01-31T07:48:01.925Z,93777.43
2019-01-31T07:50:33.455Z,93771.65
2019-01-31T07:53:05.301Z,93775.06
2019-01-31T07:55:37.196Z,93774.18
2019-01-31T07:58:08.837Z,93771.41
2019-01-31T08:00:40.685Z,93772.78
2019-01-31T08:03:12.241Z,93764.40
2019-01-31T08:05:44.323Z,93763.56
2019-01-31T08:08:16.298Z,93767.00
2019-01-31T08:10:48.311Z,93760.08
2019-01-31T08:13:19.915Z,93762.77
2019-01-31T08:15:51.578Z,93763.83
2019-01-31T08:18:23.341Z,93762.23
2019-01-31T08:20:54.937Z,93767.45
2019-01-31T08:23:26.598Z,93765.62
2019-01-31T08:25:58.380Z,93762.45
2019-01-31T08:28:30.347Z,93759.47
2019-01-31T08:31:02.105Z,93755.02
2019-01-31T08:33:33.903Z,93756.20
2019-01-31T08:36:05.503Z,93751.79
2019-01-31T08:38:37.363Z,93750.84
2019-01-31T08:41:08.759Z,93753.60
2019-01-31T08:43:40.696Z,93752.16
2019-01-31T08:46:12.329Z,93759.95
2019-01-31T08:48:44.046Z,93765.28
2019-01-31T08:51:15.884Z,93760.58
2019-01-31T08:53:47.363Z,93748.45
2019-01-31T08:56:19.047Z,93757.89
2019-01-31T08:58:50.688Z,93759.03
2019-01-31T09:01:23.636Z,93754.84
2019-01-31T09:03:55.311Z,93757.80
2019-01-31T09:06:26.836Z,93764.61
2019-01-31T09:08:58.346Z,93755.53
2019-01-31T09:11:30.074Z,93752.75
2019-01-31T09:14:01.832Z,93755.31
2019-01-31T09:16:33.463Z,93754.30
2019-01-31T09:19:04.929Z,93753.17
2019-01-31T09:21:49.471Z,93749.05
2019-01-31T09:25:04.167Z,93750.44
2019-01-31T09:28:11.965Z,93753.17
2019-01-31T09:31:14.295Z,93754.30
2019-01-31T09:34:17.188Z,93759.45
2019-01-31T09:37:22.234Z,93752.55
2019-01-31T09:40:31.432Z,93745.89
2019-01-31T09:43:14.235Z,93741.05
2019-01-31T09:46:26.410Z,93742.09
2019-01-31T09:49:56.501Z,93737.50
2019-01-31T09:52:59.725Z,93740.89
2019-01-31T09:56:07.439Z,93743.02
2019-01-31T09:59:28.273Z,93735.91
2019-01-31T10:02:46.723Z,93734.35
2019-01-31T10:06:00.277Z,93734.44
2019-01-31T10:09:00.029Z,93718.70
2019-01-31T10:12:18.087Z,93728.34
2019-01-31T10:15:03.978Z,93716.23
2019-01-31T10:18:12.512Z,93720.66
2019-01-31T10:21:20.167Z,93717.52
2019-01-31T10:24:34.061Z,93717.08
2019-01-31T10:27:40.511Z,93714.40
2019-01-31T10:31:16.319Z,93716.86
2019-01-31T10:34:05.080Z,93722.18
2019-01-31T10:37:23.094Z,93714.14
2019-01-31T10:40:04.991Z,93710.94
2019-01-31T10:43:32.051Z,93714.52
2019-01-31T10:46:32.480Z,93713.95
2019-01-31T10:50:05.965Z,93712.24
2019-01-31T10:53:13.125Z,93714.66
2019-01-31T10:56:21.161Z,93707.20
2019-01-31T10:59:27.483Z,93713.50
2019-01-31T11:02:37.021Z,93709.61
2019-01-31T11:05:20.002Z,93708.62
2019-01-31T11:08:28.012Z,93706.34
2019-01-31T11:11:38.889Z,93708.62
2019-01-31T11:14:57.514Z,93710.05
2019-01-31T11:18:08.666Z,93707.60
2019-01-31T11:21:23.486Z,93712.47
2019-01-31T11:24:33.223Z,93708.94
2019-01-31T11:27:39.867Z,93713.02
2019-01-31T11:30:45.195Z,93699.95
2019-01-31T11:33:52.658Z,93702.39
2019-01-31T11:36:58.023Z,93704.81
2019-01-31T11:40:08.878Z,93702.77
2019-01-31T11:43:23.752Z,93696.91
2019-01-31T11:46:21.096Z,93701.46
2019-01-31T11:49:35.024Z,93692.94
2019-01-31T11:52:37.638Z,93699.63
2019-01-31T11:55:30.381Z,93701.60
2019-01-31T11:58:27.158Z,93697.87
2019-01-31T12:00:58.674Z,93702.09
2019-01-31T12:03:30.265Z,93702.27
2019-01-31T12:06:01.811Z,93696.96
2019-01-31T12:08:33.433Z,93693.38
2019-01-31T12:11:05.052Z,93690.46
2019-01-31T12:13:36.495Z,93690.91
2019-01-31T12:16:08.183Z,93687.69
2019-01-31T12:18:39.753Z,93691.39
2019-01-31T12:21:11.587Z,93679.43
2019-01-31T12:23:43.345Z,93687.21
2019-01-31T12:26:14.911Z,93680.09
2019-01-31T12:28:46.591Z,93683.30
2019-01-31T12:31:18.088Z,93683.86
2019-01-31T12:33:49.608Z,93678.61
2019-01-31T12:36:21.138Z,93682.27
2019-01-31T12:38:54.896Z,93676.38
2019-01-31T12:41:26.153Z,93681.94
2019-01-31T12:43:57.652Z,93674.87
2019-01-31T12:46:28.912Z,93679.59
2019-01-31T12:49:00.426Z,93685.11
2019-01-31T12:51:32.181Z,93680.73
2019-01-31T12:54:03.757Z,93689.94
2019-01-31T12:56:35.455Z,93682.52
2019-01-31T12:59:07.237Z,93685.41
2019-01-31T13:01:38.929Z,93683.45
2019-01-31T13:04:10.739Z,93684.17
2019-01-31T13:06:42.216Z,93680.28
2019-01-31T13:09:15.194Z,93684.45
2019-01-31T13:11:47.118Z,93683.94
2019-01-31T13:14:18.568Z,93689.63
2019-01-31T13:16:50.090Z,93686.41
2019-01-31T13:19:21.620Z,93682.43
2019-01-31T13:21:53.171Z,93692.34
2019-01-31T13:24:24.830Z,93687.69
2019-01-31T13:26:56.561Z,93693.83
2019-01-31T13:29:27.902Z,93685.03
2019-01-31T13:31:59.487Z,93685.24
2019-01-31T13:34:31.037Z,93698.42
2019-01-31T13:37:02.706Z,93691.95
2019-01-31T13:39:34.279Z,93691.74
2019-01-31T13:42:06.171Z,93700.14
2019-01-31T13:44:37.748Z,93695.53
2019-01-31T13:47:09.422Z,93697.30
2019-01-31T13:49:41.003Z,93705.05
2019-01-31T13:52:12.550Z,93702.00
2019-01-31T13:54:44.091Z,93710.34
2019-01-31T13:57:15.826Z,93709.34
2019-01-31T13:59:47.249Z,93707.23
2019-01-31T14:02:18.530Z,93708.59
2019-01-31T14:04:52.070Z,93708.73
2019-01-31T14:07:23.796Z,93711.45
2019-01-31T14:09:55.591Z,93712.48
2019-01-31T14:12:27.048Z,93707.65
2019-01-31T14:14:58.715Z,93709.02
2019-01-31T14:17:30.253Z,93711.88
2019-01-31T14:20:02.045Z,93713.72
2019-01-31T14:22:42.751Z,93722.24
2019-01-31T14:25:07.581Z,93719.83
2019-01-31T14:27:39.257Z,93720.16
2019-01-31T14:30:26.851Z,93722.43
2019-01-31T14:32:59.069Z,93723.59
2019-01-31T14:35:30.857Z,93722.48
2019-01-31T14:38:02.214Z,93725.25
2019-01-31T14:40:33.968Z,93723.11
2019-01-31T14:43:05.507Z,93727.85
2019-01-31T14:45:37.079Z,93728.03
2019-01-31T14:48:08.593Z,93732.42
2019-01-31T14:50:40.095Z,93734.42
2019-01-31T14:53:11.649Z,93736.53
2019-01-31T14:55:43.036Z,93745.61
2019-01-31T14:58:14.908Z,93746.59
2019-01-31T15:00:46.713Z,93745.97
2019-01-31T15:03:18.047Z,93755.86
2019-01-31T15:05:49.557Z,93759.60
2019-01-31T15:08:21.056Z,93756.20
2019-01-31T15:10:52.801Z,93760.73
2019-01-31T15:13:24.396Z,93766.37
2019-01-31T15:15:56.024Z,93792.93
2019-01-31T15:18:27.953Z,93822.43
2019-01-31T15:20:59.261Z,93809.27
2019-01-31T15:23:30.487Z,93828.35
2019-01-31T15:26:02.307Z,93821.91
2019-01-31T15:28:34.073Z,93840.75
2019-01-31T15:31:05.506Z,93837.38
2019-01-31T15:33:37.393Z,93846.17
2019-01-31T15:36:09.041Z,93862.63
2019-01-31T15:38:40.924Z,93860.70
2019-01-31T15:41:12.668Z,93873.17
2019-01-31T15:43:44.139Z,93886.33
2019-01-31T15:46:18.021Z,93888.65
2019-01-31T15:48:49.698Z,93898.00
2019-01-31T15:51:21.427Z,93904.59
2019-01-31T15:53:52.812Z,93910.08
2019-01-31T15:56:24.711Z,93911.36
2019-01-31T15:58:56.447Z,93922.73
2019-01-31T16:01:28.333Z,93926.89
2019-01-31T16:04:00.930Z,93922.95
2019-01-31T16:06:33.175Z,93925.83
2019-01-31T16:09:05.866Z,93926.84
2019-01-31T16:11:37.850Z,93930.23
2019-01-31T16:14:09.575Z,93926.77
2019-01-31T16:16:41.866Z,93931.66
2019-01-31T16:19:13.516Z,93939.58
2019-01-31T16:21:45.169Z,93937.40
2019-01-31T16:24:16.963Z,93944.17
2019-01-31T16:26:48.753Z,93949.61
2019-01-31T16:29:20.664Z,93952.72
2019-01-31T16:31:52.141Z,93953.75
2019-01-31T16:34:23.695Z,93957.39
2019-01-31T16:36:55.216Z,93964.39
2019-01-31T16:39:26.435Z,93964.18
2019-01-31T16:41:57.910Z,93965.88
2019-01-31T16:44:29.818Z,93966.21
2019-01-31T16:47:01.361Z,93970.92
2019-01-31T16:49:33.048Z,93974.36
2019-01-31T16:52:05.092Z,93980.95
2019-01-31T16:54:36.576Z,93984.20
2019-01-31T16:57:08.130Z,93977.08
2019-01-31T16:59:39.578Z,93982.91
2019-01-31T17:02:11.216Z,93987.91
2019-01-31T17:04:42.920Z,93993.55
2019-01-31T17:07:14.624Z,93992.59
2019-01-31T17:09:46.354Z,94000.33
2019-01-31T17:12:18.010Z,93996.20
2019-01-31T17:14:49.672Z,94005.63
2019-01-31T17:17:21.288Z,94008.73
2019-01-31T17:19:52.973Z,94011.27
2019-01-31T17:22:24.744Z,94011.19
2019-01-31T17:24:56.271Z,94014.29
2019-01-31T17:27:27.798Z,94018.23
2019-01-31T17:29:59.489Z,94019.45
2019-01-31T17:32:31.175Z,94024.75
2019-01-31T17:35:02.693Z,94024.27
2019-01-31T17:37:34.024Z,94031.23
2019-01-31T17:40:06.967Z,94027.83
2019-01-31T17:42:38.483Z,94031.68
2019-01-31T17:45:11.331Z,94042.77
2019-01-31T17:47:42.992Z,94041.13
2019-01-31T17:50:14.850Z,94051.84
2019-01-31T17:52:46.674Z,94052.42
2019-01-31T17:55:19.627Z,94058.77
2019-01-31T17:57:51.475Z,94056.92
2019-01-31T18:00:31.541Z,94059.42
2019-01-31T18:03:03.915Z,94065.45
2019-01-31T18:05:35.519Z,94071.70
2019-01-31T18:08:09.348Z,94072.60
2019-01-31T18:10:40.279Z,94073.36
2019-01-31T18:13:12.090Z,94082.58
2019-01-31T18:15:43.783Z,94088.70
2019-01-31T18:18:15.405Z,94084.89
2019-01-31T18:20:46.817Z,94089.18
2019-01-31T18:23:19.634Z,94096.72
2019-01-31T18:25:51.077Z,94107.34
2019-01-31T18:28:22.415Z,94100.59
2019-01-31T18:30:53.870Z,94096.03
2019-01-31T18:33:27.470Z,94103.97
2019-01-31T18:35:58.462Z,94102.88
2019-01-31T18:38:30.706Z,94108.71
2019-01-31T18:41:02.316Z,94112.02
2019-01-31T18:43:33.621Z,94109.34
2019-01-31T18:46:05.139Z,94119.29
2019-01-31T18:48:36.571Z,94117.19
2019-01-31T18:51:08.307Z,94118.69
2019-01-31T18:53:40.137Z,94124.78
2019-01-31T18:56:11.840Z,94128.66
2019-01-31T18:58:44.008Z,94130.67
2019-01-31T19:01:19.989Z,94135.94
2019-01-31T19:04:03.536Z,94134.79
2019-01-31T19:06:36.889Z,94139.44
2019-01-31T19:09:09.953Z,94150.02
2019-01-31T19:11:41.889Z,94146.41
2019-01-31T19:14:14.481Z,94143.69
2019-01-31T19:16:46.262Z,94148.13
2019-01-31T19:19:17.983Z,94153.52
2019-01-31T19:21:49.411Z,94155.47
2019-01-31T19:24:21.173Z,94160.53
2019-01-31T19:26:52.961Z,94155.19
2019-01-31T19:29:29.018Z,94166.27
2019-01-31T19:32:23.873Z,94177.55
2019-01-31T19:35:02.397Z,94173.34
2019-01-31T19:37:35.624Z,94180.67
2019-01-31T19:40:08.922Z,94183.41
2019-01-31T19:42:41.460Z,94189.78
2019-01-31T19:45:31.905Z,94193.70
2019-01-31T19:48:07.384Z,94198.13
2019-01-31T19:50:38.895Z,94194.99
2019-01-31T19:53:12.351Z,94203.90
2019-01-31T19:55:43.916Z,94206.26
2019-01-31T19:58:15.601Z,94205.90
2019-01-31T20:00:51.450Z,94212.83
2019-01-31T20:03:23.053Z,94212.83
2019-01-31T20:05:54.722Z,94221.85
2019-01-31T20:08:26.266Z,94215.74
2019-01-31T20:10:58.013Z,94218.21
2019-01-31T20:13:29.562Z,94214.56
2019-01-31T20:16:01.100Z,94222.16
2019-01-31T20:18:32.749Z,94222.60
2019-01-31T20:21:04.735Z,94231.63
2019-01-31T20:23:36.071Z,94227.86
2019-01-31T20:26:07.840Z,94235.69
2019-01-31T20:28:39.442Z,94246.81
2019-01-31T20:31:11.070Z,94252.14
2019-01-31T20:33:42.935Z,94261.98
2019-01-31T20:36:14.625Z,94259.60
2019-01-31T20:38:46.613Z,94264.55
2019-01-31T20:41:18.282Z,94266.00
2019-01-31T20:43:50.320Z,94272.38
2019-01-31T20:46:21.940Z,94271.38
2019-01-31T20:48:53.788Z,94278.35
2019-01-31T20:51:25.398Z,94278.21
2019-01-31T20:53:56.990Z,94281.41
2019-01-31T20:56:28.364Z,94283.55
2019-01-31T20:59:00.104Z,94281.03
2019-01-31T21:01:31.579Z,94282.33
2019-01-31T21:04:03.297Z,94293.75
2019-01-31T21:06:41.484Z,94293.03
2019-01-31T21:09:09.440Z,94301.77
2019-01-31T21:11:42.868Z,94307.94
2019-01-31T21:14:14.215Z,94315.56
2019-01-31T21:16:52.506Z,94315.98
2019-01-31T21:19:19.034Z,94321.17
2019-01-31T21:21:50.485Z,94325.70
2019-01-31T21:24:21.937Z,94330.17
2019-01-31T21:26:53.384Z,94340.14
2019-01-31T21:32:26.525Z,94349.80
2019-01-31T21:35:09.347Z,94358.55
2019-01-31T21:37:53.741Z,94350.69
2019-01-31T21:40:41.600Z,94364.83
2019-01-31T21:43:12.923Z,94360.55
2019-01-31T21:45:44.423Z,94372.45
2019-01-31T21:48:16.131Z,94377.58
2019-01-31T21:50:47.928Z,94387.41
2019-01-31T21:53:19.652Z,94381.48
2019-01-31T21:55:51.108Z,94388.56
2019-01-31T21:58:22.690Z,94389.34
2019-01-31T22:00:54.012Z,94387.72
2019-01-31T22:03:25.606Z,94391.58
2019-01-31T22:05:56.930Z,94390.77
2019-01-31T22:08:28.618Z,94399.14
2019-01-31T22:11:00.057Z,94405.97
2019-01-31T22:13:31.400Z,94404.14
2019-01-31T22:16:02.737Z,94409.33
2019-01-31T22:18:34.406Z,94416.48
2019-01-31T22:21:06.117Z,94419.67
2019-01-31T22:23:37.713Z,94423.98
2019-01-31T22:26:09.156Z,94425.78
2019-01-31T22:28:40.858Z,94430.12
2019-01-31T22:31:12.404Z,94433.46
2019-01-31T22:33:44.009Z,94424.86
2019-01-31T22:36:15.799Z,94426.91
2019-01-31T22:38:47.397Z,94430.52
2019-01-31T22:41:19.016Z,94434.78
2019-01-31T22:43:50.332Z,94432.91
2019-01-31T22:46:21.965Z,94429.83
2019-01-31T22:48:53.667Z,94432.52
2019-01-31T22:51:25.304Z,94436.59
2019-01-31T22:53:57.024Z,94435.44
2019-01-31T22:56:28.600Z,94446.33
2019-01-31T22:59:02.244Z,94448.98
2019-01-31T23:01:50.493Z,94453.39
2019-01-31T23:04:22.016Z,94455.23
2019-01-31T23:06:53.894Z,94458.86
2019-01-31T23:09:25.560Z,94459.34
2019-01-31T23:11:57.333Z,94459.97
2019-01-31T23:14:28.947Z,94454.11
2019-01-31T23:17:00.586Z,94459.63
2019-01-31T23:19:32.034Z,94456.37
2019-01-31T23:22:03.798Z,94466.59
2019-01-31T23:24:35.443Z,94458.47
2019-01-31T23:27:07.126Z,94464.92
2019-01-31T23:29:38.750Z,94459.42
2019-01-31T23:32:10.599Z,94458.29
2019-01-31T23:34:42.318Z,94462.05
2019-01-31T23:37:13.936Z,94463.34
2019-01-31T23:39:45.716Z,94464.30
2019-01-31T23:42:17.342Z,94467.40
2019-01-31T23:44:49.001Z,94470.58
2019-01-31T23:47:20.876Z,94472.95
2019-01-31T23:49:52.631Z,94475.98
2019-01-31T23:52:23.863Z,94476.34
2019-01-31T23:54:55.324Z,94483.95
2019-01-31T23:57:27.323Z,94488.27
2019-01-31T23:59:58.817Z,94494.23
